createdAt,value
2018-09-21T00:00:57.836Z,598.2
2018-09-21T00:02:00.268Z,598.1
2018-09-21T00:03:02.709Z,598.2
2018-09-21T00:04:05.145Z,598.6
2018-09-21T00:05:07.584Z,598.4
2018-09-21T00:06:10.015Z,598.5
2018-09-21T00:07:12.174Z,598.8
2018-09-21T00:08:14.610Z,598.9
2018-09-21T00:09:17.048Z,598.8
2018-09-21T00:10:19.474Z,599.1
2018-09-21T00:11:21.638Z,599.2
2018-09-21T00:12:24.066Z,599
2018-09-21T00:13:25.968Z,599.3
2018-09-21T00:14:28.395Z,599.7
2018-09-21T00:15:30.563Z,599.6
2018-09-21T00:16:33.001Z,600
2018-09-21T00:17:35.429Z,599.9
2018-09-21T00:18:37.857Z,600.1
2018-09-21T00:19:40.290Z,600.3
2018-09-21T00:20:41.608Z,600.2
2018-09-21T00:21:44.035Z,600.5
2018-09-21T00:22:45.891Z,600.2
2018-09-21T00:23:48.327Z,600.6
2018-09-21T00:24:50.490Z,600.6
2018-09-21T00:25:52.629Z,600.8
2018-09-21T00:26:55.076Z,601.1
2018-09-21T00:27:57.257Z,600.9
2018-09-21T00:28:59.699Z,600.8
2018-09-21T00:30:02.118Z,601.1
2018-09-21T00:31:04.547Z,601.2
2018-09-21T00:32:06.990Z,601.3
2018-09-21T00:33:09.431Z,601.5
2018-09-21T00:34:11.586Z,601.3
2018-09-21T00:35:14.033Z,601.5
2018-09-21T00:36:16.469Z,601.6
2018-09-21T00:37:18.897Z,601.9
2018-09-21T00:38:21.089Z,601.8
2018-09-21T00:39:23.514Z,602.1
2018-09-21T00:40:25.937Z,602.1
2018-09-21T00:41:28.366Z,602.3
2018-09-21T00:42:30.800Z,602.2
2018-09-21T00:43:33.227Z,602.5
2018-09-21T00:44:35.656Z,602.5
2018-09-21T00:45:38.093Z,602.5
2018-09-21T00:46:40.524Z,602.7
2018-09-21T00:47:42.679Z,602.7
2018-09-21T00:48:45.116Z,602.7
2018-09-21T00:49:47.547Z,602.7
2018-09-21T00:50:49.973Z,602.7
2018-09-21T00:51:52.425Z,602.4
2018-09-21T00:52:54.849Z,602.3
2018-09-21T00:53:57.290Z,602.6
2018-09-21T00:54:59.715Z,602.5
2018-09-21T00:56:02.159Z,602.5
2018-09-21T00:57:04.587Z,602.7
2018-09-21T00:58:07.016Z,602.5
2018-09-21T00:59:09.448Z,602.6
2018-09-21T01:00:11.606Z,602.3
2018-09-21T01:01:14.037Z,602.5
2018-09-21T01:02:16.465Z,602.8
2018-09-21T01:03:18.900Z,602.7
2018-09-21T01:04:21.322Z,602.7
2018-09-21T01:05:23.754Z,603.1
2018-09-21T01:06:26.184Z,603.1
2018-09-21T01:07:28.348Z,603.1
2018-09-21T01:08:30.785Z,603.3
2018-09-21T01:09:33.218Z,603.5
2018-09-21T01:10:35.654Z,603.3
2018-09-21T01:11:38.083Z,603.2
2018-09-21T01:12:40.525Z,603.2
2018-09-21T01:13:42.961Z,603.6
2018-09-21T01:14:45.395Z,603.6
2018-09-21T01:15:47.825Z,603.7
2018-09-21T01:16:50.256Z,603.7
2018-09-21T01:17:52.691Z,603.9
2018-09-21T01:18:55.133Z,603.9
2018-09-21T01:19:57.565Z,603.7
2018-09-21T01:21:00.005Z,604.3
2018-09-21T01:22:02.428Z,604.5
2018-09-21T01:23:04.858Z,604.6
2018-09-21T01:24:07.296Z,604.5
2018-09-21T01:25:09.754Z,604.5
2018-09-21T01:26:12.179Z,604.7
2018-09-21T01:27:14.618Z,604.8
2018-09-21T01:28:17.047Z,604.8
2018-09-21T01:29:19.485Z,605
2018-09-21T01:30:21.909Z,605.2
2018-09-21T01:31:24.345Z,604.7
2018-09-21T01:32:26.508Z,604.7
2018-09-21T01:33:28.939Z,604.8
2018-09-21T01:34:31.367Z,605
2018-09-21T01:35:33.802Z,605.2
2018-09-21T01:36:36.240Z,605
2018-09-21T01:37:38.670Z,604.8
2018-09-21T01:38:41.107Z,605.1
2018-09-21T01:39:43.539Z,605.1
2018-09-21T01:40:45.964Z,605.1
2018-09-21T01:41:48.424Z,605.5
2018-09-21T01:42:50.852Z,605.1
2018-09-21T01:43:53.292Z,605.3
2018-09-21T01:44:55.725Z,605.2
2018-09-21T01:45:58.158Z,605.6
2018-09-21T01:47:00.314Z,605.3
2018-09-21T01:48:02.737Z,605.5
2018-09-21T01:49:05.204Z,605.1
2018-09-21T01:50:07.627Z,604.7
2018-09-21T01:51:10.074Z,605
2018-09-21T01:52:12.228Z,605.7
2018-09-21T01:53:14.656Z,605.4
2018-09-21T01:54:17.085Z,605.6
2018-09-21T01:55:19.231Z,605.9
2018-09-21T01:56:21.682Z,605.8
2018-09-21T01:57:24.125Z,606.1
2018-09-21T01:58:26.557Z,606
2018-09-21T01:59:28.707Z,606.2
2018-09-21T02:00:31.154Z,606.3
2018-09-21T02:01:33.594Z,606.3
2018-09-21T02:02:36.020Z,606.1
2018-09-21T02:03:38.484Z,606.3
2018-09-21T02:04:40.923Z,606.7
2018-09-21T02:05:43.368Z,606.5
2018-09-21T02:06:45.509Z,606.3
2018-09-21T02:07:47.947Z,606.4
2018-09-21T02:08:50.374Z,606.7
2018-09-21T02:09:52.542Z,606.4
2018-09-21T02:10:54.974Z,606.7
2018-09-21T02:11:57.407Z,606.6
2018-09-21T02:12:59.848Z,606.7
2018-09-21T02:14:02.284Z,606.2
2018-09-21T02:15:04.703Z,606.6
2018-09-21T02:16:06.859Z,606.3
2018-09-21T02:17:09.301Z,606
2018-09-21T02:18:11.733Z,606.1
2018-09-21T02:19:14.157Z,606.2
2018-09-21T02:20:16.299Z,606.4
2018-09-21T02:21:18.726Z,606.5
2018-09-21T02:22:21.154Z,606.5
2018-09-21T02:23:23.327Z,606.4
2018-09-21T02:24:25.515Z,606.4
2018-09-21T02:25:27.947Z,606.7
2018-09-21T02:26:30.382Z,606.2
2018-09-21T02:27:32.803Z,606.8
2018-09-21T02:28:34.964Z,606.4
2018-09-21T02:29:37.395Z,606.7
2018-09-21T02:30:39.828Z,607
2018-09-21T02:31:42.270Z,607.1
2018-09-21T02:32:44.716Z,607.1
2018-09-21T02:33:47.132Z,607.3
2018-09-21T02:34:49.569Z,607.5
2018-09-21T02:35:52.049Z,607.3
2018-09-21T02:36:54.471Z,607.4
2018-09-21T02:37:56.904Z,607.4
2018-09-21T02:38:59.337Z,607.1
2018-09-21T02:40:01.777Z,607.1
2018-09-21T02:41:04.236Z,607.4
2018-09-21T02:42:06.656Z,607.3
2018-09-21T02:43:09.084Z,607.4
2018-09-21T02:44:11.527Z,607.5
2018-09-21T02:45:13.961Z,607.3
2018-09-21T02:46:16.386Z,607.4
2018-09-21T02:47:18.823Z,607.3
2018-09-21T02:48:21.268Z,607.3
2018-09-21T02:49:23.702Z,607.3
2018-09-21T02:50:26.124Z,607.1
2018-09-21T02:51:28.560Z,607.1
2018-09-21T02:52:30.989Z,607
2018-09-21T02:53:33.415Z,607.5
2018-09-21T02:54:35.838Z,607.1
2018-09-21T02:55:38.279Z,607.2
2018-09-21T02:56:40.718Z,606.9
2018-09-21T02:57:43.156Z,607.1
2018-09-21T02:58:45.597Z,607.1
2018-09-21T02:59:48.023Z,607
2018-09-21T03:00:51.127Z,606.9
2018-09-21T03:01:53.648Z,606.8
2018-09-21T03:02:56.116Z,607
2018-09-21T03:03:58.557Z,606.8
2018-09-21T03:05:00.737Z,606.4
2018-09-21T03:06:03.168Z,606.3
2018-09-21T03:07:05.322Z,606.8
2018-09-21T03:08:07.752Z,606.8
2018-09-21T03:09:10.185Z,606.7
2018-09-21T03:10:12.621Z,606.2
2018-09-21T03:11:15.047Z,606.2
2018-09-21T03:12:17.478Z,606
2018-09-21T03:13:19.916Z,605.9
2018-09-21T03:14:22.416Z,605.9
2018-09-21T03:15:24.913Z,606
2018-09-21T03:16:27.076Z,605.7
2018-09-21T03:17:29.515Z,605.7
2018-09-21T03:18:31.947Z,606.3
2018-09-21T03:19:34.099Z,606.1
2018-09-21T03:20:36.544Z,606.3
2018-09-21T03:21:38.977Z,606.2
2018-09-21T03:22:41.417Z,606.3
2018-09-21T03:23:43.845Z,606.6
2018-09-21T03:24:45.998Z,606.9
2018-09-21T03:25:48.158Z,607.3
2018-09-21T03:26:50.596Z,607
2018-09-21T03:27:53.026Z,607.3
2018-09-21T03:28:55.473Z,607.5
2018-09-21T03:29:57.640Z,607.6
2018-09-21T03:31:00.068Z,607.4
2018-09-21T03:32:02.507Z,607.3
2018-09-21T03:33:04.936Z,607.4
2018-09-21T03:34:07.362Z,607.3
2018-09-21T03:35:09.955Z,607.3
2018-09-21T03:36:12.397Z,607.3
2018-09-21T03:37:14.828Z,607.3
2018-09-21T03:38:17.257Z,607.1
2018-09-21T03:39:19.705Z,607.5
2018-09-21T03:40:22.140Z,607.2
2018-09-21T03:41:24.557Z,607.6
2018-09-21T03:42:26.716Z,607.5
2018-09-21T03:43:28.876Z,607.8
2018-09-21T03:44:31.317Z,608.1
2018-09-21T03:45:33.743Z,608
2018-09-21T03:46:36.173Z,607.8
2018-09-21T03:47:38.607Z,608
2018-09-21T03:48:41.051Z,607.7
2018-09-21T03:49:43.477Z,608.1
2018-09-21T03:50:45.906Z,608.5
2018-09-21T03:51:48.338Z,608.1
2018-09-21T03:52:50.777Z,608.4
2018-09-21T03:53:53.208Z,608.1
2018-09-21T03:54:56.094Z,608.3
2018-09-21T03:55:58.617Z,608.6
2018-09-21T03:57:00.838Z,609.2
2018-09-21T03:58:03.290Z,609.3
2018-09-21T03:59:05.722Z,609
2018-09-21T04:00:08.155Z,609.4
2018-09-21T04:01:10.982Z,609.3
2018-09-21T04:02:13.495Z,609.7
2018-09-21T04:03:15.951Z,609.8
2018-09-21T04:04:18.394Z,609.7
2018-09-21T04:05:20.836Z,609.9
2018-09-21T04:06:23.287Z,609.2
2018-09-21T04:07:25.754Z,609.6
2018-09-21T04:08:28.192Z,609.1
2018-09-21T04:09:30.622Z,609.1
2018-09-21T04:10:32.771Z,609.3
2018-09-21T04:11:34.948Z,609
2018-09-21T04:12:37.142Z,609
2018-09-21T04:13:39.297Z,609.6
2018-09-21T04:14:41.733Z,609.3
2018-09-21T04:15:44.163Z,609.7
2018-09-21T04:16:46.594Z,609.8
2018-09-21T04:17:49.027Z,609.7
2018-09-21T04:18:51.455Z,609.8
2018-09-21T04:19:53.911Z,609.7
2018-09-21T04:20:56.047Z,609.7
2018-09-21T04:21:58.477Z,609.8
2018-09-21T04:23:01.247Z,609.9
2018-09-21T04:24:03.706Z,610.1
2018-09-21T04:25:06.151Z,610.2
2018-09-21T04:26:08.588Z,610.4
2018-09-21T04:27:11.017Z,609.9
2018-09-21T04:28:13.182Z,610
2018-09-21T04:29:15.620Z,609.8
2018-09-21T04:30:18.042Z,610
2018-09-21T04:31:20.475Z,610
2018-09-21T04:32:22.913Z,610.3
2018-09-21T04:33:25.348Z,610.1
2018-09-21T04:34:27.776Z,609.9
2018-09-21T04:35:30.257Z,610.7
2018-09-21T04:36:32.684Z,610.9
2018-09-21T04:37:35.110Z,611
2018-09-21T04:38:37.541Z,611.4
2018-09-21T04:39:39.977Z,611.1
2018-09-21T04:40:42.134Z,611.1
2018-09-21T04:41:44.284Z,611.5
2018-09-21T04:42:46.734Z,611.6
2018-09-21T04:43:49.175Z,611.4
2018-09-21T04:44:51.616Z,611.7
2018-09-21T04:45:54.200Z,611.9
2018-09-21T04:46:56.352Z,611.8
2018-09-21T04:47:58.785Z,611.6
2018-09-21T04:49:01.221Z,612.1
2018-09-21T04:50:03.648Z,612.1
2018-09-21T04:51:06.099Z,611.7
2018-09-21T04:52:08.527Z,611.8
2018-09-21T04:53:10.951Z,611.7
2018-09-21T04:54:13.386Z,611.4
2018-09-21T04:55:15.554Z,611.5
2018-09-21T04:56:17.713Z,611.7
2018-09-21T04:57:20.149Z,611.2
2018-09-21T04:58:22.576Z,611.3
2018-09-21T04:59:25.012Z,611.4
2018-09-21T05:00:27.435Z,611.6
2018-09-21T05:01:29.872Z,611.3
2018-09-21T05:02:32.316Z,611.3
2018-09-21T05:03:34.213Z,611
2018-09-21T05:04:36.644Z,611.3
2018-09-21T05:05:39.077Z,611
2018-09-21T05:06:41.533Z,611.1
2018-09-21T05:07:43.967Z,611
2018-09-21T05:08:46.424Z,610.9
2018-09-21T05:09:48.862Z,610.6
2018-09-21T05:10:51.028Z,610.7
2018-09-21T05:11:53.192Z,610.8
2018-09-21T05:12:55.630Z,610.6
2018-09-21T05:13:58.066Z,610.2
2018-09-21T05:15:00.213Z,610.3
2018-09-21T05:16:02.649Z,610.3
2018-09-21T05:17:05.087Z,609.8
2018-09-21T05:18:07.522Z,609.8
2018-09-21T05:19:09.951Z,609.8
2018-09-21T05:20:12.389Z,609.9
2018-09-21T05:21:14.837Z,609.7
2018-09-21T05:22:17.270Z,609.8
2018-09-21T05:23:19.705Z,609.9
2018-09-21T05:24:22.124Z,609.8
2018-09-21T05:25:24.556Z,610
2018-09-21T05:26:26.993Z,609.8
2018-09-21T05:27:29.570Z,609.9
2018-09-21T05:28:31.989Z,609.8
2018-09-21T05:29:34.428Z,609.9
2018-09-21T05:30:36.859Z,609.7
2018-09-21T05:31:39.360Z,609.5
2018-09-21T05:32:41.857Z,609.1
2018-09-21T05:33:44.374Z,609.1
2018-09-21T05:34:48.149Z,609.1
2018-09-21T05:35:50.437Z,609.3
2018-09-21T05:36:52.860Z,609.3
2018-09-21T05:37:55.308Z,609.2
2018-09-21T05:38:57.469Z,609.1
2018-09-21T05:39:59.915Z,609.2
2018-09-21T05:41:02.344Z,608.9
2018-09-21T05:42:04.769Z,609.2
2018-09-21T05:43:07.196Z,609.1
2018-09-21T05:44:09.625Z,609.4
2018-09-21T05:45:12.070Z,609.1
2018-09-21T05:46:14.498Z,609.6
2018-09-21T05:47:17.306Z,609.4
2018-09-21T05:48:19.746Z,609.2
2018-09-21T05:49:22.204Z,609.3
2018-09-21T05:50:24.637Z,609.2
2018-09-21T05:51:27.073Z,609.2
2018-09-21T05:52:29.527Z,609.1
2018-09-21T05:53:31.952Z,609.4
2018-09-21T05:54:34.097Z,608.8
2018-09-21T05:55:36.511Z,608.8
2018-09-21T05:56:38.940Z,609.1
2018-09-21T05:57:41.369Z,609
2018-09-21T05:58:43.797Z,608.9
2018-09-21T05:59:46.230Z,609
2018-09-21T06:00:48.655Z,609.1
2018-09-21T06:01:51.083Z,609.2
2018-09-21T06:02:53.719Z,609.2
2018-09-21T06:03:55.928Z,609.3
2018-09-21T06:04:58.362Z,609.1
2018-09-21T06:06:00.804Z,609
2018-09-21T06:07:02.959Z,609
2018-09-21T06:08:05.803Z,609.5
2018-09-21T06:09:08.237Z,609
2018-09-21T06:10:10.666Z,609.1
2018-09-21T06:11:12.827Z,609.4
2018-09-21T06:12:14.963Z,609.6
2018-09-21T06:13:17.128Z,609.1
2018-09-21T06:14:19.565Z,609.3
2018-09-21T06:15:22.006Z,609.6
2018-09-21T06:16:24.448Z,609.8
2018-09-21T06:17:26.918Z,609.6
2018-09-21T06:18:29.367Z,609.6
2018-09-21T06:19:32.524Z,609.7
2018-09-21T06:20:35.015Z,609.8
2018-09-21T06:21:37.489Z,609.5
2018-09-21T06:23:44.919Z,610.2
2018-09-21T06:24:47.367Z,610.3
2018-09-21T06:25:49.798Z,609.9
2018-09-21T06:26:52.228Z,609.8
2018-09-21T06:27:54.661Z,610.1
2018-09-21T06:28:56.815Z,610.2
2018-09-21T06:29:59.266Z,610.1
2018-09-21T06:31:01.692Z,610.3
2018-09-21T06:32:04.339Z,610
2018-09-21T06:33:06.808Z,610
2018-09-21T06:34:08.939Z,610.2
2018-09-21T06:35:11.375Z,610.3
2018-09-21T06:36:13.808Z,610.1
2018-09-21T06:37:15.966Z,609.8
2018-09-21T06:38:18.398Z,610.1
2018-09-21T06:39:20.844Z,610
2018-09-21T06:40:23.280Z,610.4
2018-09-21T06:41:25.737Z,610
2018-09-21T06:42:28.321Z,610.8
2018-09-21T06:43:30.763Z,610.2
2018-09-21T06:44:32.939Z,610.5
2018-09-21T06:45:35.381Z,610
2018-09-21T06:46:37.817Z,610
2018-09-21T06:47:40.245Z,610.2
2018-09-21T06:48:42.407Z,610
2018-09-21T06:49:44.732Z,610.1
2018-09-21T06:50:47.177Z,610.5
2018-09-21T06:51:49.597Z,610.3
2018-09-21T06:52:51.748Z,610.2
2018-09-21T06:53:53.908Z,610
2018-09-21T06:54:56.339Z,610.5
2018-09-21T06:55:58.769Z,610.4
2018-09-21T06:57:01.210Z,610.1
2018-09-21T06:58:03.383Z,610.4
2018-09-21T06:59:05.826Z,610.2
2018-09-21T07:00:08.263Z,610.4
2018-09-21T07:01:10.791Z,610.4
2018-09-21T07:02:13.250Z,610.3
2018-09-21T07:03:15.697Z,610.3
2018-09-21T07:04:17.882Z,610.7
2018-09-21T07:05:20.324Z,610.7
2018-09-21T07:06:22.757Z,610.9
2018-09-21T07:07:25.183Z,610.8
2018-09-21T07:08:27.682Z,610.7
2018-09-21T07:09:30.122Z,610.6
2018-09-21T07:10:32.566Z,610.5
2018-09-21T07:11:34.998Z,610.5
2018-09-21T07:12:37.423Z,610.4
2018-09-21T07:13:39.848Z,610.8
2018-09-21T07:14:42.294Z,610.6
2018-09-21T07:15:44.620Z,610.2
2018-09-21T07:16:47.068Z,610.4
2018-09-21T07:17:49.505Z,610.4
2018-09-21T07:18:51.934Z,610.4
2018-09-21T07:19:54.097Z,610.1
2018-09-21T07:20:56.530Z,610.4
2018-09-21T07:21:58.973Z,610.5
2018-09-21T07:23:01.409Z,610.3
2018-09-21T07:24:03.866Z,610.3
2018-09-21T07:25:06.304Z,610.4
2018-09-21T07:26:08.750Z,610.5
2018-09-21T07:27:11.216Z,610.4
2018-09-21T07:28:13.646Z,610.6
2018-09-21T07:29:16.079Z,610.7
2018-09-21T07:30:18.516Z,610.8
2018-09-21T07:31:21.452Z,610.2
2018-09-21T07:32:23.936Z,610.6
2018-09-21T07:33:26.380Z,610.5
2018-09-21T07:34:28.823Z,610.3
2018-09-21T07:35:31.246Z,610.6
2018-09-21T07:36:33.677Z,610.3
2018-09-21T07:37:36.589Z,610.2
2018-09-21T07:38:39.082Z,610.1
2018-09-21T07:39:41.501Z,610.2
2018-09-21T07:40:43.932Z,610
2018-09-21T07:41:46.085Z,610
2018-09-21T07:42:48.580Z,610
2018-09-21T07:43:51.034Z,610.2
2018-09-21T07:44:53.477Z,610.2
2018-09-21T07:45:55.902Z,610.1
2018-09-21T07:46:58.327Z,610.1
2018-09-21T07:48:00.798Z,610
2018-09-21T07:49:03.999Z,610.1
2018-09-21T07:50:06.488Z,610
2018-09-21T07:51:08.915Z,609.8
2018-09-21T07:52:11.353Z,609.9
2018-09-21T07:53:13.789Z,610.1
2018-09-21T07:54:16.369Z,610.5
2018-09-21T07:55:18.845Z,610.2
2018-09-21T07:56:21.010Z,610.1
2018-09-21T07:57:23.451Z,610.5
2018-09-21T07:58:25.604Z,610.2
2018-09-21T07:59:28.041Z,609.7
2018-09-21T08:00:30.479Z,610.3
2018-09-21T08:01:32.919Z,610
2018-09-21T08:02:35.080Z,609.9
2018-09-21T08:03:37.540Z,609.8
2018-09-21T08:04:39.968Z,609.8
2018-09-21T08:05:42.394Z,609.7
2018-09-21T08:06:44.824Z,609.3
2018-09-21T08:07:47.262Z,609.5
2018-09-21T08:08:49.714Z,609.5
2018-09-21T08:09:52.153Z,610.1
2018-09-21T08:10:54.585Z,609.5
2018-09-21T08:11:57.026Z,609.6
2018-09-21T08:13:00.076Z,609.2
2018-09-21T08:14:02.591Z,609.4
2018-09-21T08:15:05.049Z,609.3
2018-09-21T08:16:07.476Z,609.4
2018-09-21T08:17:09.907Z,609.2
2018-09-21T08:18:12.337Z,609.4
2018-09-21T08:19:14.773Z,609.4
2018-09-21T08:20:17.204Z,609.2
2018-09-21T08:21:19.382Z,609.1
2018-09-21T08:22:21.809Z,609.1
2018-09-21T08:23:24.240Z,609.2
2018-09-21T08:24:26.664Z,608.8
2018-09-21T08:25:29.095Z,609.1
2018-09-21T08:26:31.630Z,609.1
2018-09-21T08:27:34.056Z,609.2
2018-09-21T08:28:36.488Z,609.5
2018-09-21T08:29:38.946Z,609.7
2018-09-21T08:30:41.388Z,609.2
2018-09-21T08:31:43.833Z,609.6
2018-09-21T08:32:46.267Z,609.7
2018-09-21T08:33:48.710Z,609.7
2018-09-21T08:34:51.202Z,609.8
2018-09-21T08:35:53.641Z,609.9
2018-09-21T08:36:56.065Z,610.2
2018-09-21T08:37:58.508Z,610.4
2018-09-21T08:39:00.668Z,610.5
2018-09-21T08:40:03.111Z,610.3
2018-09-21T08:41:05.538Z,610.3
2018-09-21T08:42:07.965Z,610.6
2018-09-21T08:43:10.394Z,610.7
2018-09-21T08:44:12.820Z,610.6
2018-09-21T08:45:15.253Z,610.8
2018-09-21T08:46:17.693Z,610.7
2018-09-21T08:47:20.131Z,610.7
2018-09-21T08:48:22.765Z,611
2018-09-21T08:49:25.200Z,611.2
2018-09-21T08:50:27.635Z,611
2018-09-21T08:51:30.081Z,610.6
2018-09-21T08:52:32.519Z,610.9
2018-09-21T08:53:34.953Z,610.8
2018-09-21T08:54:37.107Z,611.3
2018-09-21T08:55:39.535Z,611.7
2018-09-21T08:56:41.975Z,611.5
2018-09-21T08:57:44.137Z,611.2
2018-09-21T08:58:46.570Z,611.8
2018-09-21T08:59:49.000Z,611.5
2018-09-21T09:00:50.872Z,612.1
2018-09-21T09:01:53.324Z,612.2
2018-09-21T09:02:55.715Z,611.5
2018-09-21T09:03:58.190Z,611.9
2018-09-21T09:05:00.101Z,611.7
2018-09-21T09:06:02.530Z,611.7
2018-09-21T09:07:04.998Z,611.9
2018-09-21T09:08:07.152Z,612.1
2018-09-21T09:09:09.589Z,612.2
2018-09-21T09:10:12.022Z,611.9
2018-09-21T09:11:14.460Z,611.8
2018-09-21T09:12:16.893Z,611.7
2018-09-21T09:13:19.335Z,611.7
2018-09-21T09:14:21.765Z,611.8
2018-09-21T09:15:24.226Z,612
2018-09-21T09:16:26.674Z,611.9
2018-09-21T09:17:29.111Z,612.6
2018-09-21T09:18:31.533Z,611.9
2018-09-21T09:19:33.968Z,612.2
2018-09-21T09:20:36.129Z,612.3
2018-09-21T09:21:38.558Z,612.2
2018-09-21T09:22:40.990Z,612.3
2018-09-21T09:23:43.442Z,611.8
2018-09-21T09:25:46.632Z,612
2018-09-21T09:26:49.066Z,611.9
2018-09-21T09:27:51.506Z,612.1
2018-09-21T09:28:53.977Z,611.8
2018-09-21T09:29:56.609Z,611.8
2018-09-21T09:30:59.092Z,612.3
2018-09-21T09:32:01.517Z,612.1
2018-09-21T09:33:03.948Z,612.1
2018-09-21T09:34:06.379Z,612.4
2018-09-21T09:35:08.820Z,612.6
2018-09-21T09:36:11.252Z,612.2
2018-09-21T09:37:13.681Z,612.4
2018-09-21T09:38:16.115Z,612.6
2018-09-21T09:39:18.549Z,612.5
2018-09-21T09:40:20.979Z,612.9
2018-09-21T09:41:23.415Z,613.3
2018-09-21T09:42:25.855Z,613
2018-09-21T09:43:28.831Z,613.4
2018-09-21T09:44:31.301Z,613.6
2018-09-21T09:45:33.764Z,613.2
2018-09-21T09:46:36.191Z,613.4
2018-09-21T09:47:38.632Z,613.5
2018-09-21T09:48:41.356Z,613.6
2018-09-21T09:49:43.240Z,613.5
2018-09-21T09:50:45.379Z,613.6
2018-09-21T09:51:47.819Z,613.9
2018-09-21T09:52:50.262Z,613.9
2018-09-21T09:53:52.697Z,613.9
2018-09-21T09:54:55.504Z,614
2018-09-21T09:55:57.996Z,614.1
2018-09-21T09:57:00.438Z,613.5
2018-09-21T09:58:02.866Z,614.5
2018-09-21T09:59:05.293Z,614.6
2018-09-21T10:00:07.724Z,614.4
2018-09-21T10:01:10.165Z,614.1
2018-09-21T10:02:12.624Z,614.2
2018-09-21T10:03:15.046Z,614.6
2018-09-21T10:04:17.474Z,614.5
2018-09-21T10:05:19.665Z,614.5
2018-09-21T10:06:21.810Z,614.6
2018-09-21T10:07:24.239Z,614.6
2018-09-21T10:08:26.673Z,614.9
2018-09-21T10:09:28.825Z,614.7
2018-09-21T10:10:31.828Z,614.8
2018-09-21T10:11:34.263Z,614.9
2018-09-21T10:12:36.714Z,615
2018-09-21T10:13:39.137Z,614.8
2018-09-21T10:14:41.577Z,614.6
2018-09-21T10:15:44.011Z,614.6
2018-09-21T10:16:46.542Z,614.7
2018-09-21T10:17:48.973Z,615
2018-09-21T10:18:51.399Z,614.1
2018-09-21T10:19:53.546Z,615
2018-09-21T10:20:55.730Z,614.7
2018-09-21T10:21:58.167Z,615.1
2018-09-21T10:23:00.595Z,615.3
2018-09-21T10:24:03.240Z,615
2018-09-21T10:25:05.662Z,615.4
2018-09-21T10:26:08.127Z,615.1
2018-09-21T10:27:11.243Z,615.8
2018-09-21T10:28:14.828Z,615.9
2018-09-21T10:29:17.264Z,616
2018-09-21T10:30:19.694Z,616.1
2018-09-21T10:31:22.158Z,616.2
2018-09-21T10:32:24.616Z,616
2018-09-21T10:33:27.155Z,616.4
2018-09-21T10:34:29.901Z,616.3
2018-09-21T10:35:33.131Z,616.5
2018-09-21T10:36:35.680Z,616.2
2018-09-21T10:37:38.128Z,616.5
2018-09-21T10:38:40.641Z,616.5
2018-09-21T10:39:43.102Z,616.8
2018-09-21T10:40:45.559Z,616.5
2018-09-21T10:41:47.985Z,616.5
2018-09-21T10:42:51.291Z,617.2
2018-09-21T10:43:53.790Z,616.7
2018-09-21T10:44:56.208Z,616.7
2018-09-21T10:45:58.724Z,616.6
2018-09-21T10:47:01.150Z,617.6
2018-09-21T10:48:03.048Z,617.8
2018-09-21T10:49:05.497Z,616.8
2018-09-21T10:50:07.947Z,616.8
2018-09-21T10:51:10.379Z,617.1
2018-09-21T10:52:12.820Z,617.6
2018-09-21T10:53:15.309Z,617.9
2018-09-21T10:54:17.749Z,617.4
2018-09-21T10:55:19.909Z,617.4
2018-09-21T10:56:22.338Z,617.9
2018-09-21T10:57:24.502Z,617.6
2018-09-21T10:58:26.985Z,618.1
2018-09-21T10:59:29.140Z,617.7
2018-09-21T11:00:32.014Z,617.1
2018-09-21T11:01:34.501Z,617.4
2018-09-21T11:02:36.928Z,617.8
2018-09-21T11:03:39.376Z,618.1
2018-09-21T11:04:41.848Z,618
2018-09-21T11:05:44.278Z,617.7
2018-09-21T11:06:46.712Z,618.1
2018-09-21T11:07:49.154Z,618.2
2018-09-21T11:08:51.753Z,618
2018-09-21T11:09:54.228Z,618.2
2018-09-21T11:10:56.677Z,618.3
2018-09-21T11:11:59.116Z,618.3
2018-09-21T11:13:01.688Z,618.1
2018-09-21T11:14:04.119Z,618.7
2018-09-21T11:15:06.548Z,618.8
2018-09-21T11:16:08.976Z,618.9
2018-09-21T11:17:11.416Z,618.9
2018-09-21T11:18:13.843Z,618.7
2018-09-21T11:19:16.327Z,618.7
2018-09-21T11:20:18.491Z,619
2018-09-21T11:21:20.923Z,619.7
2018-09-21T11:22:23.378Z,619.4
2018-09-21T11:23:25.829Z,618.8
2018-09-21T11:24:28.294Z,619.4
2018-09-21T11:25:30.726Z,618.9
2018-09-21T11:26:33.145Z,619.5
2018-09-21T11:27:35.585Z,619.4
2018-09-21T11:28:38.016Z,619.8
2018-09-21T11:29:40.448Z,620
2018-09-21T11:30:42.604Z,619.3
2018-09-21T11:31:45.050Z,619.7
2018-09-21T11:32:47.477Z,620.4
2018-09-21T11:33:49.918Z,619.7
2018-09-21T11:34:52.356Z,620.5
2018-09-21T11:35:54.793Z,620.4
2018-09-21T11:36:57.228Z,621.1
2018-09-21T11:37:59.667Z,620.3
2018-09-21T11:39:02.116Z,621
2018-09-21T11:40:04.563Z,620.9
2018-09-21T11:41:07.621Z,621.4
2018-09-21T11:42:10.138Z,621.4
2018-09-21T11:43:12.278Z,621.4
2018-09-21T11:44:14.710Z,621.7
2018-09-21T11:45:17.162Z,620.8
2018-09-21T11:46:19.588Z,621.5
2018-09-21T11:47:23.250Z,621.4
2018-09-21T11:48:25.728Z,621.4
2018-09-21T11:49:28.162Z,621.6
2018-09-21T11:50:30.589Z,621.2
2018-09-21T11:51:33.039Z,621.9
2018-09-21T11:52:35.479Z,621.7
2018-09-21T11:53:37.919Z,621.4
2018-09-21T11:54:40.352Z,622.2
2018-09-21T11:55:42.785Z,622.2
2018-09-21T11:56:45.218Z,622
2018-09-21T11:57:47.664Z,621.7
2018-09-21T11:58:50.102Z,622.2
2018-09-21T11:59:52.540Z,622.1
2018-09-21T12:00:54.989Z,621.9
2018-09-21T12:01:57.816Z,622.4
2018-09-21T12:03:00.328Z,622.4
2018-09-21T12:04:02.478Z,622.8
2018-09-21T12:05:05.195Z,622.4
2018-09-21T12:06:07.134Z,623
2018-09-21T12:07:09.563Z,623.5
2018-09-21T12:08:11.996Z,623.5
2018-09-21T12:09:14.428Z,623.8
2018-09-21T12:10:16.875Z,623.5
2018-09-21T12:11:19.296Z,623.9
2018-09-21T12:12:21.739Z,623.6
2018-09-21T12:13:24.183Z,623.9
2018-09-21T12:14:26.609Z,624.1
2018-09-21T12:15:28.776Z,623.7
2018-09-21T12:16:31.328Z,623.3
2018-09-21T12:17:33.562Z,623.8
2018-09-21T12:18:36.052Z,623.8
2018-09-21T12:19:38.207Z,623.6
2018-09-21T12:20:40.657Z,624.3
2018-09-21T12:21:42.810Z,623.7
2018-09-21T12:22:45.613Z,624.4
2018-09-21T12:23:47.778Z,624
2018-09-21T12:24:49.927Z,624.4
2018-09-21T12:25:52.379Z,624.7
2018-09-21T12:26:54.808Z,624.2
2018-09-21T12:27:57.246Z,624.2
2018-09-21T12:28:59.879Z,623.9
2018-09-21T12:30:02.319Z,624.3
2018-09-21T12:31:04.749Z,623.9
2018-09-21T12:32:06.920Z,623.9
2018-09-21T12:33:09.397Z,624.3
2018-09-21T12:34:11.539Z,624.2
2018-09-21T12:35:13.979Z,624.5
2018-09-21T12:36:16.677Z,623.6
2018-09-21T12:37:19.102Z,623.6
2018-09-21T12:38:21.565Z,624
2018-09-21T12:39:24.001Z,624.2
2018-09-21T12:40:26.449Z,624
2018-09-21T12:41:28.887Z,624.4
2018-09-21T12:42:31.717Z,624.8
2018-09-21T12:43:34.234Z,625
2018-09-21T12:44:37.102Z,624.5
2018-09-21T12:45:39.091Z,625
2018-09-21T12:46:41.523Z,624.1
2018-09-21T12:47:43.956Z,624.4
2018-09-21T12:48:46.388Z,624.7
2018-09-21T12:49:48.846Z,625.3
2018-09-21T12:50:51.629Z,625.4
2018-09-21T12:51:54.113Z,625
2018-09-21T12:52:56.549Z,625.3
2018-09-21T12:53:58.980Z,625.4
2018-09-21T12:55:01.419Z,625.3
2018-09-21T12:56:03.578Z,626.1
2018-09-21T12:57:06.030Z,625.8
2018-09-21T12:58:09.013Z,625.8
2018-09-21T12:59:11.583Z,626
2018-09-21T13:00:14.036Z,626.2
2018-09-21T13:01:16.480Z,626.3
2018-09-21T13:02:18.927Z,626.4
2018-09-21T13:03:21.360Z,627.2
2018-09-21T13:04:23.790Z,627.2
2018-09-21T13:05:26.233Z,627.2
2018-09-21T13:06:29.278Z,627.6
2018-09-21T13:07:31.778Z,627.7
2018-09-21T13:08:34.216Z,628.5
2018-09-21T13:09:36.643Z,628.6
2018-09-21T13:10:39.102Z,628.7
2018-09-21T13:11:41.557Z,628.3
2018-09-21T13:12:43.987Z,629.3
2018-09-21T13:13:46.458Z,628.8
2018-09-21T13:14:48.909Z,628.5
2018-09-21T13:15:51.346Z,628.2
2018-09-21T13:16:53.800Z,629.4
2018-09-21T13:17:56.221Z,628.8
2018-09-21T13:18:58.363Z,628.4
2018-09-21T13:20:00.809Z,629
2018-09-21T13:21:03.245Z,628.5
2018-09-21T13:22:05.692Z,628.2
2018-09-21T13:23:08.126Z,629.1
2018-09-21T13:24:10.561Z,629.1
2018-09-21T13:25:12.990Z,629
2018-09-21T13:26:15.439Z,628.6
2018-09-21T13:27:17.870Z,628.5
2018-09-21T13:28:20.049Z,629.2
2018-09-21T13:29:22.497Z,628
2018-09-21T13:30:24.931Z,628.8
2018-09-21T13:31:27.375Z,629.5